createdAt,value
2023-04-28T00:01:36.644Z,9.83
2023-04-28T00:04:09.681Z,9.13
2023-04-28T00:06:42.646Z,8.77
2023-04-28T00:09:18.604Z,8.80
2023-04-28T00:11:54.352Z,9.60
2023-04-28T00:14:27.099Z,8.53
2023-04-28T00:17:03.286Z,9.30
2023-04-28T00:19:36.687Z,8.60
2023-04-28T00:22:09.639Z,9.23
2023-04-28T00:24:42.573Z,8.80
2023-04-28T00:27:15.505Z,8.80
2023-04-28T00:29:50.858Z,8.23
2023-04-28T00:32:26.606Z,8.47
2023-04-28T00:34:59.380Z,8.67
2023-04-28T00:37:32.169Z,8.03
2023-04-28T00:40:07.536Z,7.30
2023-04-28T00:42:43.093Z,7.43
2023-04-28T00:45:15.807Z,7.03
2023-04-28T00:47:50.039Z,6.67
2023-04-28T00:50:23.071Z,7.00
2023-04-28T00:52:55.980Z,7.80
2023-04-28T00:55:29.143Z,7.67
2023-04-28T00:58:01.923Z,7.90
2023-04-28T01:00:35.046Z,6.63
2023-04-28T01:03:09.278Z,7.80
2023-04-28T01:05:42.340Z,7.63
2023-04-28T01:08:15.083Z,7.43
2023-04-28T01:10:47.953Z,7.27
2023-04-28T01:13:20.963Z,7.83
2023-04-28T01:15:56.146Z,7.60
2023-04-28T01:18:33.730Z,6.70
2023-04-28T01:21:06.812Z,7.00
2023-04-28T01:23:39.815Z,5.90
2023-04-28T01:26:15.907Z,6.40
2023-04-28T01:28:52.877Z,6.50
2023-04-28T01:31:25.828Z,6.87
2023-04-28T01:34:01.234Z,6.60
2023-04-28T01:36:36.735Z,5.83
2023-04-28T01:39:10.348Z,5.87
2023-04-28T01:41:44.625Z,5.80
2023-04-28T01:44:18.386Z,6.23
2023-04-28T01:46:51.388Z,6.03
2023-04-28T01:49:32.903Z,6.20
2023-04-28T01:52:08.292Z,7.10
2023-04-28T01:54:41.138Z,6.63
2023-04-28T01:57:16.640Z,6.10
2023-04-28T01:59:50.462Z,6.50
2023-04-28T02:02:23.215Z,6.70
2023-04-28T02:04:58.118Z,7.07
2023-04-28T02:07:31.070Z,6.33
2023-04-28T02:10:03.862Z,6.33
2023-04-28T02:12:38.154Z,6.00
2023-04-28T02:15:11.274Z,6.33
2023-04-28T02:17:43.999Z,5.27
2023-04-28T02:20:18.249Z,6.87
2023-04-28T02:22:51.031Z,5.90
2023-04-28T02:25:29.508Z,7.37
2023-04-28T02:28:04.121Z,6.67
2023-04-28T02:30:36.833Z,6.50
2023-04-28T02:33:09.608Z,6.40
2023-04-28T02:35:43.124Z,6.13
2023-04-28T02:38:15.908Z,5.17
2023-04-28T02:40:48.701Z,5.60
2023-04-28T02:43:22.924Z,6.00
2023-04-28T02:45:58.344Z,5.83
2023-04-28T02:48:31.518Z,5.63
2023-04-28T02:51:04.470Z,6.20
2023-04-28T02:53:37.338Z,5.60
2023-04-28T02:56:10.291Z,6.20
2023-04-28T02:58:44.354Z,5.63
2023-04-28T03:01:19.805Z,5.30
2023-04-28T03:03:52.823Z,4.97
2023-04-28T03:06:26.767Z,5.00
2023-04-28T03:08:59.396Z,4.60
2023-04-28T03:11:32.787Z,5.20
2023-04-28T03:14:06.990Z,5.77
2023-04-28T03:16:39.990Z,5.77
2023-04-28T03:19:12.849Z,5.90
2023-04-28T03:21:46.210Z,6.00
2023-04-28T03:24:19.102Z,5.80
2023-04-28T03:26:52.004Z,5.80
2023-04-28T03:29:26.128Z,4.90
2023-04-28T03:31:58.876Z,5.63
2023-04-28T03:34:31.934Z,5.70
2023-04-28T03:37:04.843Z,5.33
2023-04-28T03:39:37.564Z,5.63
2023-04-28T03:42:11.597Z,5.60
2023-04-28T03:44:45.658Z,5.17
2023-04-28T03:47:18.530Z,5.17
2023-04-28T03:49:52.132Z,4.87
2023-04-28T03:52:24.770Z,4.70
2023-04-28T03:54:57.664Z,4.53
2023-04-28T03:57:30.794Z,4.30
2023-04-28T04:00:05.933Z,4.60
2023-04-28T04:02:41.619Z,4.70
2023-04-28T04:05:14.782Z,5.60
2023-04-28T04:07:47.781Z,4.93
2023-04-28T04:10:20.576Z,4.90
2023-04-28T04:12:53.797Z,4.77
2023-04-28T04:15:29.537Z,5.27
2023-04-28T04:18:02.483Z,4.87
2023-04-28T04:20:35.243Z,4.80
2023-04-28T04:23:23.449Z,4.50
2023-04-28T04:25:56.292Z,4.67
2023-04-28T04:28:31.686Z,5.00
2023-04-28T04:31:05.760Z,5.30
2023-04-28T04:33:38.536Z,5.30
2023-04-28T04:36:14.213Z,5.80
2023-04-28T04:38:49.636Z,4.70
2023-04-28T04:41:22.704Z,4.43
2023-04-28T04:43:55.476Z,5.03
2023-04-28T04:46:29.601Z,4.87
2023-04-28T04:49:02.482Z,4.77
2023-04-28T04:51:35.190Z,4.97
2023-04-28T04:54:10.653Z,4.87
2023-04-28T04:56:43.288Z,4.60
2023-04-28T04:59:16.385Z,4.90
2023-04-28T05:01:50.984Z,5.00
2023-04-28T05:04:24.016Z,4.93
2023-04-28T05:06:57.159Z,5.23
2023-04-28T05:09:32.005Z,5.00
2023-04-28T05:12:04.880Z,4.83
2023-04-28T05:14:37.684Z,4.80
2023-04-28T05:17:12.222Z,5.10
2023-04-28T05:19:45.064Z,5.50
2023-04-28T05:22:17.791Z,4.77
2023-04-28T05:24:50.567Z,4.50
2023-04-28T05:27:25.282Z,5.00
2023-04-28T05:30:00.103Z,5.10
2023-04-28T05:32:35.060Z,5.27
2023-04-28T05:35:08.145Z,5.73
2023-04-28T05:37:43.585Z,4.77
2023-04-28T05:40:16.892Z,5.13
2023-04-28T05:42:49.635Z,5.47
2023-04-28T05:45:22.562Z,4.60
2023-04-28T05:47:57.809Z,5.10
2023-04-28T05:50:33.022Z,4.40
2023-04-28T05:53:05.965Z,5.30
2023-04-28T05:55:40.912Z,4.90
2023-04-28T05:58:16.566Z,5.53
2023-04-28T06:00:51.302Z,4.90
2023-04-28T06:03:25.612Z,4.73
2023-04-28T06:05:58.570Z,4.73
2023-04-28T06:08:39.074Z,5.13
2023-04-28T06:11:11.914Z,4.63
2023-04-28T06:13:44.622Z,5.10
2023-04-28T06:16:18.020Z,5.00
2023-04-28T06:18:53.162Z,4.63
2023-04-28T06:21:27.332Z,5.17
2023-04-28T06:24:00.770Z,4.63
2023-04-28T06:26:33.540Z,4.50
2023-04-28T06:29:06.325Z,4.50
2023-04-28T06:31:39.155Z,4.93
2023-04-28T06:34:13.296Z,5.70
2023-04-28T06:36:46.393Z,4.77
2023-04-28T06:39:19.310Z,4.20
2023-04-28T06:41:55.061Z,4.97
2023-04-28T06:44:27.869Z,4.37
2023-04-28T06:47:01.923Z,4.43
2023-04-28T06:49:36.247Z,4.20
2023-04-28T06:52:09.196Z,4.03
2023-04-28T06:54:43.750Z,5.17
2023-04-28T06:57:16.447Z,4.40
2023-04-28T06:59:49.223Z,4.17
2023-04-28T07:02:22.310Z,4.10
2023-04-28T07:04:56.644Z,4.20
2023-04-28T07:07:29.566Z,3.50
2023-04-28T07:10:02.428Z,4.00
2023-04-28T07:12:37.208Z,3.93
2023-04-28T07:15:10.480Z,3.40
2023-04-28T07:17:43.436Z,4.10
2023-04-28T07:20:17.620Z,3.80
2023-04-28T07:22:50.573Z,4.07
2023-04-28T07:25:23.304Z,3.70
2023-04-28T07:27:56.214Z,3.90
2023-04-28T07:30:29.029Z,3.93
2023-04-28T07:33:02.084Z,3.90
2023-04-28T07:35:36.271Z,3.93
2023-04-28T07:38:09.078Z,3.77
2023-04-28T07:40:43.477Z,4.20
2023-04-28T07:43:16.348Z,3.67
2023-04-28T07:45:52.077Z,4.63
2023-04-28T07:48:28.259Z,4.13
2023-04-28T07:51:02.811Z,4.03
2023-04-28T07:53:36.011Z,4.30
2023-04-28T07:56:09.626Z,4.20
2023-04-28T07:58:42.419Z,4.90
2023-04-28T08:01:15.242Z,3.90
2023-04-28T08:03:48.252Z,5.00
2023-04-28T08:06:22.990Z,4.67
2023-04-28T08:08:55.925Z,4.70
2023-04-28T08:11:28.833Z,4.73
2023-04-28T08:14:13.233Z,4.10
2023-04-28T08:16:46.586Z,4.63
2023-04-28T08:19:19.893Z,4.37
2023-04-28T08:21:54.059Z,4.43
2023-04-28T08:24:30.282Z,4.47
2023-04-28T08:27:04.051Z,4.17
2023-04-28T08:29:36.926Z,4.30
2023-04-28T08:32:09.726Z,4.50
2023-04-28T08:34:42.687Z,3.70
2023-04-28T08:37:17.002Z,4.50
2023-04-28T08:39:49.894Z,4.17
2023-04-28T08:42:22.890Z,5.23
2023-04-28T08:44:59.876Z,4.60
2023-04-28T08:47:37.276Z,4.70
2023-04-28T08:50:10.210Z,3.87
2023-04-28T08:52:46.881Z,4.40
2023-04-28T08:55:20.059Z,38.83
2023-04-28T08:57:53.004Z,5.60
2023-04-28T09:00:26.120Z,5.10
2023-04-28T09:02:59.013Z,5.97
2023-04-28T09:05:32.246Z,4.23
2023-04-28T09:08:09.022Z,4.53
2023-04-28T09:10:43.519Z,4.43
2023-04-28T09:13:27.476Z,4.33
2023-04-28T09:16:01.135Z,3.90
2023-04-28T09:18:34.115Z,4.40
2023-04-28T09:21:07.724Z,5.17
2023-04-28T09:23:49.365Z,5.40
2023-04-28T09:26:22.354Z,4.03
2023-04-28T09:29:12.860Z,5.00
2023-04-28T09:31:45.712Z,4.67
2023-04-28T09:34:18.786Z,3.83
2023-04-28T09:36:51.825Z,4.00
2023-04-28T09:39:35.525Z,4.33
2023-04-28T09:42:08.325Z,4.70
2023-04-28T09:44:43.051Z,4.80
2023-04-28T09:47:21.038Z,4.70
2023-04-28T09:49:57.110Z,4.60
2023-04-28T09:52:29.849Z,5.00
2023-04-28T09:55:04.647Z,5.33
2023-04-28T09:57:37.784Z,4.90
2023-04-28T10:00:13.737Z,4.27
2023-04-28T10:02:46.595Z,5.47
2023-04-28T10:05:20.408Z,5.73
2023-04-28T10:07:55.393Z,5.43
2023-04-28T10:10:29.969Z,5.20
2023-04-28T10:13:03.292Z,5.30
2023-04-28T10:15:36.682Z,4.60
2023-04-28T10:18:10.302Z,5.57
2023-04-28T10:20:44.672Z,4.77
2023-04-28T10:23:38.755Z,5.37
2023-04-28T10:26:14.001Z,6.17
2023-04-28T10:28:47.580Z,5.20
2023-04-28T10:31:22.130Z,8.47
2023-04-28T10:33:54.906Z,5.83
2023-04-28T10:36:47.389Z,5.63
2023-04-28T10:39:20.349Z,4.53
2023-04-28T10:41:54.418Z,5.47
2023-04-28T10:44:42.517Z,5.60
2023-04-28T10:47:15.393Z,5.33
2023-04-28T10:50:07.994Z,5.23
2023-04-28T10:52:52.003Z,4.60
2023-04-28T10:55:28.833Z,5.77
2023-04-28T10:58:29.651Z,5.17
2023-04-28T11:01:21.439Z,4.77
2023-04-28T11:04:00.477Z,5.10
2023-04-28T11:06:35.933Z,4.97
2023-04-28T11:09:23.621Z,4.93
2023-04-28T11:12:06.056Z,5.43
2023-04-28T11:14:40.613Z,5.10
2023-04-28T11:17:16.409Z,5.30
2023-04-28T11:19:51.343Z,4.23
2023-04-28T11:22:25.393Z,4.83
2023-04-28T11:24:58.812Z,3.93
2023-04-28T11:27:32.473Z,4.90
2023-04-28T11:30:20.993Z,4.70
2023-04-28T11:32:53.966Z,4.60
2023-04-28T11:35:41.243Z,4.77
2023-04-28T11:38:14.230Z,4.83
2023-04-28T11:40:57.542Z,4.80
2023-04-28T11:43:44.060Z,5.03
2023-04-28T11:46:20.487Z,5.70
2023-04-28T11:49:04.479Z,6.83
2023-04-28T11:51:39.479Z,5.70
2023-04-28T11:54:14.605Z,6.13
2023-04-28T11:56:47.871Z,5.23
2023-04-28T12:01:59.316Z,5.00
2023-04-28T12:04:35.772Z,5.00
2023-04-28T12:07:13.190Z,5.90
2023-04-28T12:09:48.071Z,4.63
2023-04-28T12:12:39.951Z,5.10
2023-04-28T12:15:20.501Z,5.50
2023-04-28T12:17:53.981Z,8.87
2023-04-28T12:20:36.807Z,6.50
2023-04-28T12:23:11.192Z,5.63
2023-04-28T12:25:44.742Z,5.70
2023-04-28T12:28:17.504Z,6.43
2023-04-28T12:30:50.294Z,5.93
2023-04-28T12:33:23.881Z,6.50
2023-04-28T12:35:57.393Z,5.77
2023-04-28T12:38:32.468Z,5.57
2023-04-28T12:41:05.869Z,6.13
2023-04-28T12:43:40.909Z,5.63
2023-04-28T12:46:14.853Z,5.73
2023-04-28T12:48:47.590Z,6.37
2023-04-28T12:51:20.413Z,6.13
2023-04-28T12:53:54.548Z,5.33
2023-04-28T12:56:27.745Z,6.00
2023-04-28T12:59:02.632Z,6.07
2023-04-28T13:01:35.561Z,5.73
2023-04-28T13:04:09.803Z,5.50
2023-04-28T13:06:44.063Z,6.10
2023-04-28T13:09:18.158Z,6.33
2023-04-28T13:11:50.966Z,5.93
2023-04-28T13:14:24.648Z,5.77
2023-04-28T13:16:58.106Z,5.40
2023-04-28T13:19:34.077Z,5.83
2023-04-28T13:22:06.974Z,5.43
2023-04-28T13:24:41.483Z,5.60
2023-04-28T13:27:14.516Z,6.23
2023-04-28T13:29:47.479Z,5.13
2023-04-28T13:32:20.262Z,5.47
2023-04-28T13:34:52.898Z,6.07
2023-04-28T13:37:28.282Z,6.13
2023-04-28T13:40:04.344Z,5.30
2023-04-28T13:42:37.334Z,5.43
2023-04-28T13:45:13.996Z,5.43
2023-04-28T13:47:49.130Z,5.80
2023-04-28T13:50:22.272Z,6.07
2023-04-28T13:52:55.087Z,9.17
2023-04-28T13:55:29.310Z,8.03
2023-04-28T13:58:04.782Z,5.97
2023-04-28T14:00:39.069Z,5.93
2023-04-28T14:03:12.132Z,6.13
2023-04-28T14:05:49.507Z,6.70
2023-04-28T14:08:23.244Z,6.47
2023-04-28T14:10:57.446Z,9.53
2023-04-28T14:13:30.822Z,9.33
2023-04-28T14:16:03.866Z,7.13
2023-04-28T14:18:37.880Z,6.93
2023-04-28T14:21:11.018Z,6.37
2023-04-28T14:23:43.828Z,6.93
2023-04-28T14:26:18.763Z,6.77
2023-04-28T14:28:51.644Z,6.03
2023-04-28T14:31:24.943Z,6.07
2023-04-28T14:33:57.672Z,6.30
2023-04-28T14:36:33.183Z,7.00
2023-04-28T14:39:06.028Z,6.60
2023-04-28T14:41:40.334Z,6.63
2023-04-28T14:44:13.275Z,8.20
2023-04-28T14:46:50.082Z,8.30
2023-04-28T14:49:25.824Z,6.60
2023-04-28T14:51:59.956Z,7.53
2023-04-28T14:54:33.585Z,7.87
2023-04-28T14:57:08.555Z,8.03
2023-04-28T14:59:41.920Z,9.60
2023-04-28T15:02:14.956Z,8.10
2023-04-28T15:04:48.380Z,8.07
2023-04-28T15:07:25.003Z,6.60
2023-04-28T15:09:57.920Z,10.13
2023-04-28T15:12:32.815Z,7.67
2023-04-28T15:15:06.148Z,7.80
2023-04-28T15:17:39.234Z,8.00
2023-04-28T15:20:12.287Z,5.90
2023-04-28T15:22:45.597Z,6.77
2023-04-28T15:25:18.403Z,8.10
2023-04-28T15:27:52.567Z,8.80
2023-04-28T15:30:27.928Z,9.13
2023-04-28T15:33:01.051Z,8.83
2023-04-28T15:35:34.875Z,7.80
2023-04-28T15:38:08.375Z,8.43
2023-04-28T15:40:41.938Z,9.27
2023-04-28T15:43:16.134Z,19.87
2023-04-28T15:45:49.180Z,10.07
2023-04-28T15:48:23.208Z,9.13
2023-04-28T15:50:56.022Z,9.37
2023-04-28T15:53:29.749Z,7.40
2023-04-28T15:56:02.678Z,6.90
2023-04-28T15:58:36.988Z,8.00
2023-04-28T16:01:09.795Z,8.10
2023-04-28T16:03:44.095Z,8.33
2023-04-28T16:06:24.103Z,6.83
2023-04-28T16:08:57.288Z,6.53
2023-04-28T16:11:30.826Z,6.63
2023-04-28T16:14:05.291Z,7.20
2023-04-28T16:16:38.277Z,8.33
2023-04-28T16:19:11.221Z,15.03
2023-04-28T16:21:44.543Z,14.23
2023-04-28T16:24:17.364Z,15.30
2023-04-28T16:26:50.899Z,11.67
2023-04-28T16:29:25.113Z,13.53
2023-04-28T16:31:58.064Z,19.13
2023-04-28T16:34:30.956Z,16.77
2023-04-28T16:37:03.883Z,47.57
2023-04-28T16:39:36.756Z,17.00
2023-04-28T16:42:09.722Z,16.33
2023-04-28T16:44:44.053Z,18.20
2023-04-28T16:47:16.990Z,14.97
2023-04-28T16:49:49.979Z,11.90
2023-04-28T16:52:23.185Z,12.63
2023-04-28T16:54:56.077Z,10.90
2023-04-28T16:57:29.334Z,11.70
2023-04-28T17:00:03.675Z,9.77
2023-04-28T17:02:36.768Z,11.23
2023-04-28T17:05:12.566Z,11.83
2023-04-28T17:07:45.405Z,11.37
2023-04-28T17:10:18.350Z,9.03
2023-04-28T17:12:51.433Z,11.50
2023-04-28T17:15:27.297Z,9.40
2023-04-28T17:18:00.154Z,8.67
2023-04-28T17:20:33.684Z,8.73
2023-04-28T17:23:06.892Z,8.50
2023-04-28T17:25:39.796Z,8.40
2023-04-28T17:28:12.924Z,8.30
2023-04-28T17:30:47.952Z,9.73
2023-04-28T17:33:20.868Z,11.63
2023-04-28T17:35:53.728Z,9.87
2023-04-28T17:38:26.528Z,17.13
2023-04-28T17:40:59.547Z,10.67
2023-04-28T17:43:32.775Z,11.77
2023-04-28T17:46:07.038Z,10.53
2023-04-28T17:48:39.854Z,16.03
2023-04-28T17:51:12.683Z,13.40
2023-04-28T17:53:46.243Z,13.93
2023-04-28T17:56:19.642Z,13.30
2023-04-28T17:58:52.622Z,13.97
2023-04-28T18:01:29.777Z,15.30
2023-04-28T18:04:02.821Z,15.23
2023-04-28T18:06:38.463Z,13.57
2023-04-28T18:09:11.246Z,13.33
2023-04-28T18:11:44.267Z,12.60
2023-04-28T18:14:18.397Z,11.47
2023-04-28T18:16:52.748Z,11.93
2023-04-28T18:19:26.853Z,11.93
2023-04-28T18:22:00.253Z,11.87
2023-04-28T18:24:33.444Z,11.30
2023-04-28T18:27:06.156Z,10.20
2023-04-28T18:29:38.946Z,9.83
2023-04-28T18:32:15.000Z,10.00
2023-04-28T18:34:49.440Z,10.63
2023-04-28T18:37:22.412Z,21.23
2023-04-28T18:39:56.421Z,11.27
2023-04-28T18:42:30.804Z,21.87
2023-04-28T18:45:04.509Z,12.53
2023-04-28T18:47:39.070Z,10.93
2023-04-28T18:50:14.569Z,13.10
2023-04-28T18:52:47.518Z,9.67
2023-04-28T18:55:22.456Z,10.40
2023-04-28T18:57:55.251Z,10.10
2023-04-28T19:00:28.253Z,12.27
2023-04-28T19:03:02.719Z,10.50
2023-04-28T19:05:35.727Z,10.23
2023-04-28T19:08:11.525Z,10.47
2023-04-28T19:10:45.083Z,10.70
2023-04-28T19:13:18.409Z,10.73
2023-04-28T19:15:53.501Z,11.53
2023-04-28T19:18:28.725Z,11.33
2023-04-28T19:21:02.096Z,10.30
2023-04-28T19:23:35.295Z,10.47
2023-04-28T19:26:09.067Z,10.57
2023-04-28T19:28:42.920Z,9.37
2023-04-28T19:31:16.321Z,9.33
2023-04-28T19:33:50.716Z,9.90
2023-04-28T19:36:26.474Z,9.97
2023-04-28T19:38:59.489Z,9.07
2023-04-28T19:41:34.788Z,10.03
2023-04-28T19:44:07.810Z,9.07
2023-04-28T19:46:41.012Z,9.00
2023-04-28T19:49:15.291Z,9.10
2023-04-28T19:51:48.375Z,9.20
2023-04-28T19:54:21.173Z,9.40
2023-04-28T19:56:54.393Z,9.03
2023-04-28T19:59:27.274Z,9.20
2023-04-28T20:02:00.153Z,8.53
2023-04-28T20:04:35.028Z,9.03
2023-04-28T20:07:08.485Z,8.10
2023-04-28T20:09:41.397Z,9.63
2023-04-28T20:12:15.238Z,9.97
2023-04-28T20:14:49.085Z,9.23
2023-04-28T20:17:22.205Z,9.47
2023-04-28T20:19:58.732Z,8.67
2023-04-28T20:22:35.596Z,9.40
2023-04-28T20:25:09.953Z,8.53
2023-04-28T20:27:45.563Z,9.20
2023-04-28T20:30:20.813Z,9.10
2023-04-28T20:32:54.264Z,8.43
2023-04-28T20:35:29.022Z,9.60
2023-04-28T20:38:02.220Z,8.97
2023-04-28T20:40:39.004Z,9.70
2023-04-28T20:43:12.046Z,9.10
2023-04-28T20:45:44.887Z,8.83
2023-04-28T20:48:19.958Z,10.20
2023-04-28T20:50:55.207Z,10.10
2023-04-28T20:53:27.952Z,10.00
2023-04-28T20:56:00.810Z,9.13
2023-04-28T20:58:33.615Z,9.67
2023-04-28T21:01:06.618Z,9.70
2023-04-28T21:03:39.597Z,9.13
2023-04-28T21:06:13.890Z,9.97
2023-04-28T21:08:46.703Z,8.83
2023-04-28T21:11:19.677Z,9.43
2023-04-28T21:13:52.568Z,8.47
2023-04-28T21:16:25.639Z,8.60
2023-04-28T21:19:01.133Z,8.60
2023-04-28T21:21:35.289Z,8.13
2023-04-28T21:24:09.268Z,9.00
2023-04-28T21:26:42.276Z,8.60
2023-04-28T21:29:15.486Z,9.13
2023-04-28T21:31:48.432Z,8.10
2023-04-28T21:34:23.682Z,8.20
2023-04-28T21:36:58.313Z,8.50
2023-04-28T21:39:31.927Z,8.50
2023-04-28T21:42:05.818Z,7.93
2023-04-28T21:44:38.576Z,8.23
2023-04-28T21:47:11.493Z,8.87
2023-04-28T21:49:44.513Z,9.00
2023-04-28T21:52:18.560Z,8.20
2023-04-28T21:54:51.412Z,8.83
2023-04-28T21:57:26.470Z,8.30
2023-04-28T22:00:02.133Z,8.23
2023-04-28T22:02:35.083Z,8.43
2023-04-28T22:05:08.311Z,8.37
2023-04-28T22:07:42.765Z,8.57
2023-04-28T22:10:17.087Z,8.70
2023-04-28T22:12:50.279Z,8.83
2023-04-28T22:15:23.082Z,8.57
2023-04-28T22:17:59.060Z,8.30
2023-04-28T22:20:32.253Z,8.33
2023-04-28T22:23:06.423Z,8.37
2023-04-28T22:25:39.317Z,8.50
2023-04-28T22:28:12.228Z,8.30
2023-04-28T22:30:46.311Z,8.43
2023-04-28T22:33:19.090Z,9.03
2023-04-28T22:35:51.922Z,7.70
2023-04-28T22:38:28.978Z,8.23
2023-04-28T22:41:02.252Z,7.60
2023-04-28T22:43:34.976Z,7.83
2023-04-28T22:46:08.018Z,8.00
2023-04-28T22:48:41.059Z,7.40
2023-04-28T22:51:15.758Z,8.23
2023-04-28T22:53:49.996Z,8.73
2023-04-28T22:56:22.818Z,8.53
2023-04-28T22:58:55.713Z,7.43
2023-04-28T23:01:34.022Z,8.30
2023-04-28T23:04:07.055Z,7.37
2023-04-28T23:06:39.915Z,8.20
2023-04-28T23:09:14.180Z,7.27
2023-04-28T23:11:47.134Z,8.20
2023-04-28T23:14:20.520Z,7.87
2023-04-28T23:16:53.359Z,7.90
2023-04-28T23:19:26.176Z,8.30
2023-04-28T23:21:59.118Z,7.90
2023-04-28T23:24:33.314Z,8.73
2023-04-28T23:27:06.122Z,7.43
2023-04-28T23:29:39.004Z,8.73
2023-04-28T23:32:12.635Z,7.70
2023-04-28T23:34:48.098Z,7.83
2023-04-28T23:37:20.894Z,8.13
2023-04-28T23:39:55.179Z,8.07
2023-04-28T23:42:29.903Z,7.97
2023-04-28T23:45:02.897Z,7.90
2023-04-28T23:47:35.755Z,8.17
2023-04-28T23:50:09.640Z,7.40
2023-04-28T23:52:43.911Z,8.03
2023-04-28T23:55:18.124Z,8.70
2023-04-28T23:57:50.920Z,8.30
